Meteo Giornale » Osservazioni meteo Cina » Chongqing
ore: 13:00 - Osservazioni Meteo Chongqing
Lat. 29° 31' N Lon. 106° 29' E Alt. 351 metri s.l.m.
33 °C
Sereno
Temp. 24 Ore
25 °C
34 °C
Est
14.4 Km/h
Dew point 14 °C
Umidità 31 %
Visibilità 10 Km
Il sole sorge alle ore 06:31
Il sole tramonta alle ore 19:17
| Data e Ora | Cielo e Fenomeni | T °C | DP °C | Um. % | Pres. hPa | Vis. km | Vento km/h | |
|---|---|---|---|---|---|---|---|---|
| Oggi h: 13:00 | Sereno | 33 | 14 | 31 | 1012 | 10 | E 14.4 | |
| Oggi h: 12:00 | Sereno | 32 | 13 | 31 | 1013 | 10 | NE 14.4 | |
| Oggi h: 11:00 | Sereno | 31 | 14 | 35 | 1013 | 10 | E 18 | |
| Oggi h: 10:00 | Sereno | 30 | 16 | 42 | 1013 | 10 | E 14.4 | |
| Oggi h: 09:00 | Sereno | 28 | 16 | 48 | 1013 | 10 | NE 14.4 | |
| Oggi h: 08:00 | Sereno | 27 | 14 | 44 | 1013 | 10 | N/NE 14.4 | |
| Oggi h: 07:00 | Sereno | 25 | 14 | 50 | 1012 | 10 | N/NE 14.4 | |
| Oggi h: 06:00 | Sereno | 25 | 14 | 50 | 1012 | 10 | NE 14.4 | |
| Oggi h: 05:00 | Sereno | 26 | 14 | 47 | 1011 | 10 | N/NE 14.4 | |
| Oggi h: 04:00 | Sereno | 26 | 15 | 50 | 1011 | 10 | N/NE 18 | |
| Oggi h: 03:00 | Sereno | 25 | 19 | 69 | 1011 | 10 | N 10.8 | |
| Oggi h: 02:00 | Sereno | 26 | 22 | 78 | 1011 | 10 | N 10.8 | |
| Oggi h: 01:00 | Sereno | 26 | 22 | 78 | 1011 | 10 | N 7.2 | |
| Oggi h: 00:00 | Sereno | 27 | 20 | 65 | 1011 | 10 | N 7.2 | |
| Ieri h: 23:00 | Sereno | 28 | 20 | 61 | 1011 | 10 | N 7.2 | |
| Ieri h: 22:00 | Sereno | 29 | 20 | 58 | 1010 | 10 | N 7.2 | |
| Ieri h: 21:00 | Sereno | 29 | 20 | 58 | 1010 | 10 | N 10.8 | |
| Ieri h: 20:00 | Sereno | 30 | 20 | 55 | 1009 | 10 | N 7.2 | |
| Ieri h: 19:00 | Poco Nuvoloso | 31 | 20 | 52 | 1008 | 10 | NO 10.8 | |
| Ieri h: 18:00 | Poco Nuvoloso | 32 | 20 | 49 | 1008 | 10 | NO 18 | |
| Ieri h: 17:00 | Nuvoloso | 33 | 20 | 46 | 1008 | 10 | NO 14.4 | |
| Ieri h: 16:00 | Nuvoloso | 33 | 20 | 46 | 1008 | 10 | O/NO 14.4 | |
| Ieri h: 15:00 | Nuvoloso | 34 | 18 | 38 | 1009 | 10 | N 10.8 | |



